Fukue Airport Goto JP
ICAO: RJFE
IATA:
Category: Medium
Scheduled Services:

Elevation: 273 ft
TransAlt. 0 ft.

Airport Communications:
RDO:118.35

RJFE Zoom In..

If you have problems with the map follow the link
https://www.worldairports.se/pages/airport.php?
ICAO=RJFE

Runways:

(A) RW 03 length 6562 ft width 148 ft
LOC 109.70 / hdg 32

(B) RW 21 length 6562 ft width 148 ft
LOC 109.70 / hdg 212

Location; RJFE
Day. 18 / Time. 04.00 Zulu
* QNH: 1012
* Temperature: 21° c. 69.8°f.
* Wind from: VRB° Speed 02 kn.
Dewpoint: 19° c.
Visibility: 8000 m.
Clouds: Few 700 ft.
Clouds: Scattered 1000 ft.
Clouds: Broken 5000 ft.
Conditions: Light Rain.

RJFE 180400Z VRB02KT 8000 -RA FEW007 SCT010 BKN050 21/19 Q1012


Wind From VRB°
Speed 02 kn.

 
 
jpsmedia.com for Web Design worldairports.se 2019   terms of use